createdAt,value
2017-12-19T00:00:30.807Z,48.70
2017-12-19T00:02:59.451Z,43.70
2017-12-19T00:05:28.070Z,43.73
2017-12-19T00:07:56.707Z,48.37
2017-12-19T00:10:26.083Z,54.40
2017-12-19T00:12:55.490Z,48.43
2017-12-19T00:15:24.392Z,51.57
2017-12-19T00:17:53.234Z,54.37
2017-12-19T00:20:22.920Z,53.03
2017-12-19T00:22:51.738Z,55.37
2017-12-19T00:25:20.866Z,51.43
2017-12-19T00:27:49.780Z,51.10
2017-12-19T00:30:18.643Z,55.03
2017-12-19T00:32:47.517Z,58.70
2017-12-19T00:35:16.373Z,58.33
2017-12-19T00:37:45.222Z,60.93
2017-12-19T00:40:14.107Z,52.27
2017-12-19T00:42:42.970Z,50.30
2017-12-19T00:45:12.677Z,48.13
2017-12-19T00:47:42.302Z,47.00
2017-12-19T00:50:11.178Z,45.10
2017-12-19T00:52:40.051Z,44.53
2017-12-19T00:55:09.667Z,44.43
2017-12-19T00:57:39.307Z,44.90
2017-12-19T01:00:08.155Z,45.50
2017-12-19T01:02:37.758Z,48.13
2017-12-19T01:05:07.378Z,47.97
2017-12-19T01:07:36.987Z,45.43
2017-12-19T01:10:06.619Z,44.77
2017-12-19T01:12:35.458Z,42.77
2017-12-19T01:15:04.372Z,41.33
2017-12-19T01:17:34.006Z,39.77
2017-12-19T01:20:02.838Z,40.40
2017-12-19T01:22:31.696Z,41.40
2017-12-19T01:25:00.539Z,38.87
2017-12-19T01:27:30.159Z,38.87
2017-12-19T01:29:59.788Z,41.03
2017-12-19T01:32:28.630Z,41.40
2017-12-19T01:34:57.476Z,39.87
2017-12-19T01:37:26.330Z,39.60
2017-12-19T01:39:56.463Z,39.47
2017-12-19T01:42:25.307Z,38.67
2017-12-19T01:44:54.253Z,39.67
2017-12-19T01:47:23.102Z,38.47
2017-12-19T01:49:52.018Z,41.97
2017-12-19T01:52:20.830Z,40.47
2017-12-19T01:54:49.690Z,40.03
2017-12-19T01:57:19.305Z,41.77
2017-12-19T01:59:48.915Z,40.20
2017-12-19T02:02:17.771Z,42.23
2017-12-19T02:04:47.215Z,39.27
2017-12-19T02:07:16.810Z,43.27
2017-12-19T02:09:46.442Z,40.67
2017-12-19T02:12:15.287Z,40.07
2017-12-19T02:14:44.142Z,42.23
2017-12-19T02:17:12.998Z,43.17
2017-12-19T02:19:42.628Z,44.00
2017-12-19T02:22:11.464Z,41.63
2017-12-19T02:24:40.293Z,40.47
2017-12-19T02:27:09.155Z,41.70
2017-12-19T02:29:38.758Z,40.93
2017-12-19T02:32:08.399Z,41.00
2017-12-19T02:34:37.242Z,41.57
2017-12-19T02:37:06.094Z,39.40
2017-12-19T02:39:34.923Z,39.37
2017-12-19T02:42:03.787Z,40.00
2017-12-19T02:44:32.627Z,43.93
2017-12-19T02:47:02.260Z,41.10
2017-12-19T02:49:31.112Z,42.17
2017-12-19T02:52:00.731Z,40.80
2017-12-19T02:54:30.358Z,38.27
2017-12-19T02:56:59.201Z,42.50
2017-12-19T02:59:28.048Z,40.90
2017-12-19T03:01:56.927Z,40.73
2017-12-19T03:04:26.552Z,42.47
2017-12-19T03:06:55.415Z,40.30
2017-12-19T03:09:24.280Z,41.53
2017-12-19T03:11:53.891Z,41.73
2017-12-19T03:14:23.528Z,40.50
2017-12-19T03:16:52.358Z,39.07
2017-12-19T03:19:21.196Z,41.30
2017-12-19T03:21:51.053Z,38.87
2017-12-19T03:24:19.899Z,40.10
2017-12-19T03:26:48.770Z,37.73
2017-12-19T03:29:18.407Z,38.20
2017-12-19T03:31:47.250Z,38.77
2017-12-19T03:34:16.860Z,41.50
2017-12-19T03:36:46.487Z,42.67
2017-12-19T03:39:15.345Z,41.33
2017-12-19T03:41:44.192Z,41.90
2017-12-19T03:44:13.056Z,40.80
2017-12-19T03:46:42.681Z,40.33
2017-12-19T03:49:11.530Z,40.80
2017-12-19T03:51:41.151Z,41.90
2017-12-19T03:54:10.375Z,43.50
2017-12-19T03:56:39.215Z,43.40
2017-12-19T03:59:08.074Z,42.17
2017-12-19T04:01:36.943Z,42.77
2017-12-19T04:04:05.801Z,43.60
2017-12-19T04:06:36.167Z,44.90
2017-12-19T04:09:05.014Z,42.20
2017-12-19T04:11:34.646Z,39.57
2017-12-19T04:14:04.281Z,42.13
2017-12-19T04:16:33.127Z,38.70
2017-12-19T04:19:02.754Z,41.43
2017-12-19T04:21:31.739Z,41.10
2017-12-19T04:24:01.370Z,42.87
2017-12-19T04:26:30.258Z,45.17
2017-12-19T04:28:59.130Z,41.40
2017-12-19T04:31:28.755Z,39.17
2017-12-19T04:33:57.624Z,40.90
2017-12-19T04:36:27.284Z,38.70
2017-12-19T04:38:56.124Z,41.07
2017-12-19T04:41:25.762Z,37.43
2017-12-19T04:43:54.599Z,40.97
2017-12-19T04:46:23.455Z,38.60
2017-12-19T04:48:52.300Z,37.87
2017-12-19T04:51:21.903Z,36.20
2017-12-19T04:53:51.536Z,37.90
2017-12-19T04:56:20.387Z,34.97
2017-12-19T04:58:49.986Z,35.20
2017-12-19T05:01:18.874Z,37.20
2017-12-19T05:03:47.725Z,35.87
2017-12-19T05:06:16.565Z,36.77
2017-12-19T05:08:45.522Z,37.63
2017-12-19T05:11:14.378Z,36.37
2017-12-19T05:13:43.990Z,36.10
2017-12-19T05:16:13.601Z,35.07
2017-12-19T05:18:43.209Z,36.30
2017-12-19T05:21:12.810Z,35.80
2017-12-19T05:23:42.422Z,36.27
2017-12-19T05:26:11.247Z,35.30
2017-12-19T05:28:40.118Z,34.43
2017-12-19T05:31:09.007Z,35.60
2017-12-19T05:33:37.898Z,34.27
2017-12-19T05:36:06.766Z,32.90
2017-12-19T05:38:36.371Z,35.80
2017-12-19T05:41:06.011Z,35.57
2017-12-19T05:43:34.866Z,33.43
2017-12-19T05:46:04.477Z,36.70
2017-12-19T05:48:34.110Z,34.80
2017-12-19T05:51:02.962Z,36.70
2017-12-19T05:53:32.570Z,37.30
2017-12-19T05:56:02.186Z,38.70
2017-12-19T05:58:31.812Z,39.97
2017-12-19T06:01:01.453Z,37.70
2017-12-19T06:03:30.326Z,40.60
2017-12-19T06:05:59.831Z,40.40
2017-12-19T06:08:28.753Z,37.03
2017-12-19T06:10:57.578Z,40.57
2017-12-19T06:13:26.414Z,36.80
2017-12-19T06:15:56.049Z,37.73
2017-12-19T06:18:25.676Z,41.27
2017-12-19T06:20:54.501Z,40.40
2017-12-19T06:23:23.677Z,40.53
2017-12-19T06:25:52.541Z,37.40
2017-12-19T06:28:21.391Z,40.00
2017-12-19T06:30:50.231Z,41.03
2017-12-19T06:33:19.087Z,43.63
2017-12-19T06:35:47.938Z,39.47
2017-12-19T06:38:16.808Z,42.87
2017-12-19T06:40:45.651Z,39.03
2017-12-19T06:43:15.324Z,41.00
2017-12-19T06:45:44.176Z,44.53
2017-12-19T06:48:13.039Z,43.60
2017-12-19T06:50:41.870Z,42.23
2017-12-19T06:53:10.715Z,40.97
2017-12-19T06:55:40.334Z,45.17
2017-12-19T06:58:09.952Z,43.80
2017-12-19T07:00:38.785Z,40.70
2017-12-19T07:03:07.654Z,41.90
2017-12-19T07:05:36.499Z,44.07
2017-12-19T07:08:05.763Z,45.57
2017-12-19T07:10:35.361Z,46.77
2017-12-19T07:13:04.226Z,47.53
2017-12-19T07:15:33.083Z,46.73
2017-12-19T07:18:01.914Z,45.57
2017-12-19T07:20:31.620Z,44.57
2017-12-19T07:23:00.426Z,46.23
2017-12-19T07:25:30.059Z,47.00
2017-12-19T07:27:58.967Z,44.73
2017-12-19T07:30:27.805Z,46.00
2017-12-19T07:32:57.442Z,45.70
2017-12-19T07:35:26.282Z,46.33
2017-12-19T07:37:55.151Z,45.00
2017-12-19T07:40:24.037Z,44.80
2017-12-19T07:42:52.917Z,47.00
2017-12-19T07:45:21.744Z,43.80
2017-12-19T07:47:50.600Z,43.53
2017-12-19T07:50:19.459Z,45.80
2017-12-19T07:52:49.191Z,45.93
2017-12-19T07:55:18.074Z,46.73
2017-12-19T07:57:46.926Z,47.87
2017-12-19T08:00:16.570Z,45.43
2017-12-19T08:02:45.410Z,47.00
2017-12-19T08:05:15.111Z,43.17
2017-12-19T08:07:43.989Z,49.87
2017-12-19T08:10:12.829Z,53.20
2017-12-19T08:12:41.661Z,49.10
2017-12-19T08:15:11.238Z,51.97
2017-12-19T08:17:40.092Z,50.47
2017-12-19T08:20:10.520Z,49.30
2017-12-19T08:22:40.128Z,50.60
2017-12-19T08:25:09.765Z,53.53
2017-12-19T08:27:38.962Z,55.53
2017-12-19T08:30:07.798Z,50.80
2017-12-19T08:32:36.647Z,56.30
2017-12-19T08:35:05.492Z,50.50
2017-12-19T08:37:34.350Z,52.93
2017-12-19T08:40:04.122Z,53.27
2017-12-19T08:42:32.978Z,50.20
2017-12-19T08:45:01.824Z,54.20
2017-12-19T08:47:31.426Z,52.27
2017-12-19T08:50:01.208Z,53.27
2017-12-19T08:52:30.822Z,50.73
2017-12-19T08:55:00.902Z,53.20
2017-12-19T08:57:30.034Z,60.07
2017-12-19T08:59:59.944Z,51.37
2017-12-19T09:02:29.572Z,49.97
2017-12-19T09:04:59.194Z,51.47
2017-12-19T09:07:28.034Z,54.10
2017-12-19T09:09:56.885Z,50.00
2017-12-19T09:12:25.761Z,50.80
2017-12-19T09:14:54.650Z,48.93
2017-12-19T09:17:24.148Z,50.27
2017-12-19T09:19:53.776Z,47.27
2017-12-19T09:22:22.596Z,49.17
2017-12-19T09:24:51.456Z,47.60
2017-12-19T09:27:20.319Z,44.43
2017-12-19T09:29:50.004Z,45.57
2017-12-19T09:32:18.821Z,48.20
2017-12-19T09:34:48.456Z,48.30
2017-12-19T09:37:17.302Z,45.10
2017-12-19T09:39:46.146Z,44.47
2017-12-19T09:42:15.023Z,44.40
2017-12-19T09:44:45.115Z,45.33
2017-12-19T09:47:14.075Z,46.53
2017-12-19T09:49:42.913Z,42.90
2017-12-19T09:52:11.915Z,44.50
2017-12-19T09:54:41.287Z,44.90
2017-12-19T09:57:11.434Z,43.97
2017-12-19T09:59:40.267Z,44.57
2017-12-19T10:02:09.119Z,43.73
2017-12-19T10:04:38.551Z,45.37
2017-12-19T10:07:07.415Z,45.40
2017-12-19T10:09:36.255Z,44.17
2017-12-19T10:12:05.094Z,45.53
2017-12-19T10:14:34.706Z,46.40
2017-12-19T10:17:04.330Z,42.10
2017-12-19T10:19:33.176Z,45.27
2017-12-19T10:22:03.165Z,42.83
2017-12-19T10:24:31.995Z,43.60
2017-12-19T10:27:01.636Z,43.57
2017-12-19T10:29:30.491Z,46.10
2017-12-19T10:31:59.707Z,43.20
2017-12-19T10:34:29.343Z,44.40
2017-12-19T10:36:58.183Z,41.97
2017-12-19T10:39:27.814Z,45.67
2017-12-19T10:41:56.686Z,42.80
2017-12-19T10:44:26.735Z,44.80
2017-12-19T10:46:55.595Z,42.87
2017-12-19T10:49:26.130Z,48.40
2017-12-19T10:51:55.758Z,48.30
2017-12-19T10:54:24.828Z,43.07
2017-12-19T10:56:53.725Z,44.10
2017-12-19T10:59:22.688Z,46.10
2017-12-19T11:01:51.543Z,46.80
2017-12-19T11:04:20.394Z,51.07
2017-12-19T11:06:49.577Z,46.77
2017-12-19T11:09:18.389Z,47.43
2017-12-19T11:11:47.266Z,48.00
2017-12-19T11:14:16.118Z,51.00
2017-12-19T11:16:45.062Z,50.47
2017-12-19T11:19:13.869Z,51.27
2017-12-19T11:21:43.486Z,52.23
2017-12-19T11:24:13.118Z,48.37
2017-12-19T11:26:42.214Z,49.30
2017-12-19T11:29:11.106Z,50.80
2017-12-19T11:31:39.955Z,50.27
2017-12-19T11:34:08.803Z,47.60
2017-12-19T11:36:37.686Z,47.10
2017-12-19T11:39:07.307Z,50.53
2017-12-19T11:41:36.205Z,46.17
2017-12-19T11:44:05.063Z,46.90
2017-12-19T11:46:33.915Z,48.70
2017-12-19T11:49:03.569Z,49.07
2017-12-19T11:51:32.434Z,46.00
2017-12-19T11:54:01.337Z,45.10
2017-12-19T11:56:31.055Z,48.50
2017-12-19T11:58:59.921Z,45.30
2017-12-19T12:01:29.522Z,41.40
2017-12-19T12:03:59.250Z,43.43
2017-12-19T12:06:28.118Z,44.60
2017-12-19T12:08:57.863Z,45.50
2017-12-19T12:11:27.058Z,46.23
2017-12-19T12:13:55.925Z,42.60
2017-12-19T12:16:24.801Z,46.57
2017-12-19T12:18:53.657Z,44.40
2017-12-19T12:21:24.026Z,44.00
2017-12-19T12:23:52.901Z,44.50
2017-12-19T12:26:22.508Z,42.13
2017-12-19T12:28:51.388Z,45.53
2017-12-19T12:31:23.158Z,42.07
2017-12-19T12:33:52.786Z,43.07
2017-12-19T12:36:22.625Z,43.87
2017-12-19T12:38:51.435Z,41.93
2017-12-19T12:41:20.282Z,44.27
2017-12-19T12:43:49.147Z,43.60
2017-12-19T12:46:18.070Z,47.40
2017-12-19T12:48:47.023Z,40.93
2017-12-19T12:51:16.660Z,48.30
2017-12-19T12:53:47.488Z,43.40
2017-12-19T12:56:16.735Z,46.60
2017-12-19T12:58:45.587Z,44.97
2017-12-19T13:01:14.645Z,49.07
2017-12-19T13:03:44.286Z,44.83
2017-12-19T13:06:13.151Z,45.83
2017-12-19T13:08:42.799Z,46.07
2017-12-19T13:11:11.652Z,48.90
2017-12-19T13:13:41.250Z,47.10
2017-12-19T13:16:10.146Z,45.87
2017-12-19T13:18:38.986Z,47.83
2017-12-19T13:21:07.889Z,50.27
2017-12-19T13:23:36.735Z,44.33
2017-12-19T13:26:06.367Z,45.40
2017-12-19T13:28:35.211Z,47.03
2017-12-19T13:31:04.236Z,46.80
2017-12-19T13:33:33.921Z,46.23
2017-12-19T13:36:03.336Z,43.17
2017-12-19T13:38:32.206Z,42.73
2017-12-19T13:41:01.035Z,42.70
2017-12-19T13:43:29.895Z,45.37
2017-12-19T13:45:59.519Z,43.27
2017-12-19T13:48:28.387Z,42.10
2017-12-19T13:50:57.226Z,40.30
2017-12-19T13:53:26.114Z,40.50
2017-12-19T13:55:54.959Z,40.20
2017-12-19T13:58:24.578Z,39.00
2017-12-19T14:00:54.222Z,40.53
2017-12-19T14:03:23.107Z,40.07
2017-12-19T14:05:51.940Z,40.77
2017-12-19T14:08:20.803Z,38.50
2017-12-19T14:10:49.657Z,39.37
2017-12-19T14:13:18.533Z,37.80
2017-12-19T14:15:47.375Z,37.87
2017-12-19T14:18:16.230Z,36.60
2017-12-19T14:20:45.082Z,39.80
2017-12-19T14:23:14.691Z,39.17
2017-12-19T14:25:44.348Z,39.03
2017-12-19T14:28:13.191Z,39.50
2017-12-19T14:30:42.814Z,41.30
2017-12-19T14:33:11.655Z,38.87
2017-12-19T14:35:40.557Z,39.07
2017-12-19T14:38:10.596Z,35.50
2017-12-19T14:40:40.227Z,38.03
2017-12-19T14:43:09.087Z,39.70
2017-12-19T14:45:37.919Z,38.37
2017-12-19T14:48:07.486Z,36.10
2017-12-19T14:50:37.099Z,37.70
2017-12-19T14:53:06.031Z,39.07
2017-12-19T14:55:34.872Z,35.87
2017-12-19T14:58:04.510Z,37.07
2017-12-19T15:00:33.375Z,39.60
2017-12-19T15:03:02.979Z,36.70
2017-12-19T15:05:32.620Z,36.67
2017-12-19T15:08:01.481Z,37.00
2017-12-19T15:10:31.117Z,38.70
2017-12-19T15:12:59.980Z,39.27
2017-12-19T15:15:28.835Z,42.10
2017-12-19T15:17:57.686Z,37.43
2017-12-19T15:20:26.536Z,39.03
2017-12-19T15:22:56.154Z,38.70
2017-12-19T15:25:25.783Z,39.03
2017-12-19T15:27:54.627Z,39.50
2017-12-19T15:30:24.269Z,40.57
2017-12-19T15:32:53.137Z,38.83
2017-12-19T15:35:22.758Z,38.23
2017-12-19T15:37:51.608Z,40.20
2017-12-19T15:40:21.220Z,40.00
2017-12-19T15:42:50.073Z,40.30
2017-12-19T15:45:18.929Z,39.47
2017-12-19T15:47:47.906Z,40.63
2017-12-19T15:50:17.501Z,40.50
2017-12-19T15:52:47.161Z,42.60
2017-12-19T15:55:16.052Z,40.07
2017-12-19T15:57:44.918Z,40.40
2017-12-19T16:00:14.591Z,38.87
2017-12-19T16:02:43.430Z,36.97
2017-12-19T16:05:12.290Z,39.63
2017-12-19T16:07:41.931Z,38.27
2017-12-19T16:10:11.548Z,39.80
2017-12-19T16:12:40.402Z,41.27
2017-12-19T16:15:09.253Z,41.03
2017-12-19T16:17:38.868Z,42.33
2017-12-19T16:20:08.481Z,39.00
2017-12-19T16:22:38.108Z,38.23
2017-12-19T16:25:08.027Z,36.60
2017-12-19T16:27:36.880Z,40.33
2017-12-19T16:30:05.751Z,38.27
2017-12-19T16:32:34.595Z,38.53
2017-12-19T16:35:03.465Z,40.27
2017-12-19T16:37:32.350Z,39.53
2017-12-19T16:40:01.979Z,37.90
2017-12-19T16:42:30.826Z,37.90
2017-12-19T16:44:59.704Z,36.97
2017-12-19T16:47:28.549Z,36.60
2017-12-19T16:49:57.426Z,36.23
2017-12-19T16:52:28.034Z,37.77
2017-12-19T16:54:56.863Z,38.77
2017-12-19T16:57:25.748Z,39.80
2017-12-19T16:59:54.587Z,37.30
2017-12-19T17:02:24.653Z,39.93
2017-12-19T17:04:53.508Z,40.30
2017-12-19T17:07:22.548Z,41.90
2017-12-19T17:09:51.428Z,42.03
2017-12-19T17:12:21.138Z,40.87
2017-12-19T17:14:50.837Z,42.53
2017-12-19T17:17:20.448Z,41.40
2017-12-19T17:19:50.076Z,43.27
2017-12-19T17:22:18.955Z,43.07
2017-12-19T17:24:48.594Z,40.70
2017-12-19T17:27:17.430Z,42.17
2017-12-19T17:29:47.704Z,40.10
2017-12-19T17:32:16.526Z,44.67
2017-12-19T17:34:46.930Z,46.20
2017-12-19T17:37:15.787Z,47.00
2017-12-19T17:39:44.644Z,46.70
2017-12-19T17:42:14.272Z,44.40
2017-12-19T17:44:43.899Z,48.97
2017-12-19T17:47:12.751Z,46.80
2017-12-19T17:49:42.370Z,49.23
2017-12-19T17:52:12.007Z,51.50
2017-12-19T17:54:41.090Z,47.47
2017-12-19T17:57:09.996Z,49.00
2017-12-19T17:59:39.387Z,48.73
2017-12-19T18:02:08.273Z,46.53
2017-12-19T18:04:37.938Z,46.23
2017-12-19T18:07:08.678Z,48.83
2017-12-19T18:09:37.552Z,51.30
2017-12-19T18:12:06.395Z,52.00
2017-12-19T18:14:35.278Z,48.53
2017-12-19T18:17:04.107Z,47.13
2017-12-19T18:19:33.005Z,49.33
2017-12-19T18:22:01.859Z,47.63
2017-12-19T18:24:31.342Z,48.33
2017-12-19T18:27:00.193Z,49.47
2017-12-19T18:29:29.075Z,49.23
2017-12-19T18:31:57.953Z,51.40
2017-12-19T18:34:26.918Z,48.87
2017-12-19T18:36:55.838Z,50.93
2017-12-19T18:39:25.707Z,45.27
2017-12-19T18:41:54.902Z,44.37
2017-12-19T18:44:23.997Z,49.77
2017-12-19T18:46:53.109Z,48.47
2017-12-19T18:49:23.007Z,43.47
2017-12-19T18:51:51.959Z,46.70
2017-12-19T18:54:21.043Z,45.10
2017-12-19T18:56:49.942Z,46.40
2017-12-19T18:59:18.784Z,43.20
2017-12-19T19:01:47.648Z,45.90
2017-12-19T19:04:17.264Z,45.57
2017-12-19T19:06:46.172Z,43.00
2017-12-19T19:09:15.269Z,41.73
2017-12-19T19:11:44.171Z,44.53
2017-12-19T19:14:13.794Z,45.90
2017-12-19T19:16:42.681Z,45.80
2017-12-19T19:19:11.545Z,44.13
2017-12-19T19:21:41.269Z,42.37
2017-12-19T19:24:10.519Z,38.60
2017-12-19T19:26:39.406Z,48.47
2017-12-19T19:29:08.358Z,39.13
2017-12-19T19:31:37.231Z,38.70
2017-12-19T19:34:06.144Z,43.10
2017-12-19T19:36:35.069Z,40.10
2017-12-19T19:39:03.948Z,38.07
2017-12-19T19:41:32.811Z,38.47
2017-12-19T19:44:01.668Z,37.60
2017-12-19T19:46:31.286Z,36.60
2017-12-19T19:49:00.895Z,41.43
2017-12-19T19:51:29.748Z,40.40
2017-12-19T19:53:59.485Z,41.00
2017-12-19T19:56:29.576Z,38.80
2017-12-19T19:58:58.489Z,39.73
2017-12-19T20:01:28.917Z,39.77
2017-12-19T20:04:14.784Z,37.47
2017-12-19T20:06:56.015Z,39.23
2017-12-19T20:09:24.840Z,39.73
2017-12-19T20:11:53.734Z,35.37
2017-12-19T20:14:22.575Z,39.30
2017-12-19T20:16:51.522Z,38.40
2017-12-19T20:19:24.423Z,37.07
2017-12-19T20:21:53.355Z,36.33
2017-12-19T20:24:22.597Z,36.57
2017-12-19T20:26:51.730Z,33.97
2017-12-19T20:29:20.586Z,33.43
2017-12-19T20:31:49.426Z,32.67
2017-12-19T20:34:19.079Z,31.97
2017-12-19T20:36:47.917Z,33.10
2017-12-19T20:39:16.917Z,35.40
2017-12-19T20:41:45.872Z,37.03
2017-12-19T20:44:14.764Z,35.47
2017-12-19T20:46:43.600Z,33.47
2017-12-19T20:49:13.262Z,34.47
2017-12-19T20:51:42.126Z,35.20
2017-12-19T20:54:11.059Z,34.90
2017-12-19T20:56:39.913Z,34.27
2017-12-19T20:59:08.956Z,31.23
2017-12-19T21:01:37.846Z,29.93
2017-12-19T21:04:06.841Z,31.23
2017-12-19T21:06:35.713Z,35.73
2017-12-19T21:09:04.573Z,32.17
2017-12-19T21:11:33.451Z,33.87
2017-12-19T21:14:02.307Z,28.23
2017-12-19T21:16:31.135Z,27.80
2017-12-19T21:19:00.048Z,25.97
2017-12-19T21:21:29.656Z,26.90
2017-12-19T21:23:59.295Z,26.07
2017-12-19T21:26:28.186Z,23.67
2017-12-19T21:28:57.366Z,27.17
2017-12-19T21:31:27.078Z,23.80
2017-12-19T21:33:56.534Z,23.53
2017-12-19T21:36:25.630Z,23.50
2017-12-19T21:38:54.454Z,24.67
2017-12-19T21:41:23.291Z,24.30
2017-12-19T21:43:52.154Z,24.87
2017-12-19T21:46:21.003Z,24.60
2017-12-19T21:48:50.659Z,24.30
2017-12-19T21:51:19.487Z,25.23
2017-12-19T21:53:48.351Z,24.10
2017-12-19T21:56:17.477Z,25.50
2017-12-19T21:58:46.346Z,26.30
2017-12-19T22:01:16.131Z,25.20
2017-12-19T22:03:45.020Z,26.07
2017-12-19T22:06:14.237Z,27.70
2017-12-19T22:08:43.079Z,27.93
2017-12-19T22:11:12.679Z,28.93
2017-12-19T22:13:42.287Z,28.90
2017-12-19T22:16:11.926Z,27.70
2017-12-19T22:18:40.792Z,30.40
2017-12-19T22:21:10.411Z,29.70
2017-12-19T22:23:40.034Z,30.77
2017-12-19T22:26:08.858Z,32.30
2017-12-19T22:28:37.739Z,28.17
2017-12-19T22:31:06.628Z,27.97
2017-12-19T22:33:35.458Z,29.10
2017-12-19T22:36:05.088Z,28.57
2017-12-19T22:38:34.698Z,27.97
2017-12-19T22:41:03.576Z,27.87
2017-12-19T22:43:33.672Z,28.40
2017-12-19T22:46:02.506Z,29.87
2017-12-19T22:48:32.117Z,26.90
2017-12-19T22:51:00.969Z,27.00
2017-12-19T22:53:29.820Z,26.00
2017-12-19T22:55:58.658Z,27.70
2017-12-19T22:58:28.262Z,25.30
2017-12-19T23:00:57.891Z,24.13
2017-12-19T23:03:26.729Z,25.63
2017-12-19T23:05:55.575Z,25.83
2017-12-19T23:08:24.414Z,26.17
2017-12-19T23:10:53.296Z,25.10
2017-12-19T23:13:22.952Z,25.37
2017-12-19T23:15:52.573Z,24.70
2017-12-19T23:18:21.431Z,24.03
2017-12-19T23:20:50.270Z,25.30
2017-12-19T23:23:19.172Z,23.80
2017-12-19T23:25:48.787Z,24.50
2017-12-19T23:28:18.426Z,25.73
2017-12-19T23:30:47.283Z,22.90
2017-12-19T23:33:16.914Z,25.17
2017-12-19T23:35:45.758Z,24.17
2017-12-19T23:38:14.586Z,26.03
2017-12-19T23:40:43.451Z,23.70
2017-12-19T23:43:13.411Z,23.43
2017-12-19T23:45:42.255Z,24.97
2017-12-19T23:48:11.879Z,24.47
2017-12-19T23:50:41.503Z,25.23
2017-12-19T23:53:10.348Z,21.90
2017-12-19T23:55:39.267Z,24.80
2017-12-19T23:58:08.897Z,24.53
